sensor_id;sensor_type;location;lat;lon;timestamp;P1;durP1;ratioP1;P2;durP2;ratioP2
77302;SDS011;66363;49.828;7.856;2023-03-01T00:00:48;8.25;;;4.72;;
77302;SDS011;66363;49.828;7.856;2023-03-01T00:03:14;8.85;;;4.53;;
77302;SDS011;66363;49.828;7.856;2023-03-01T00:05:43;10.63;;;4.70;;
77302;SDS011;66363;49.828;7.856;2023-03-01T00:08:09;7.93;;;3.88;;
77302;SDS011;66363;49.828;7.856;2023-03-01T00:10:34;6.70;;;4.20;;
77302;SDS011;66363;49.828;7.856;2023-03-01T00:13:02;6.53;;;3.75;;
77302;SDS011;66363;49.828;7.856;2023-03-01T00:15:28;9.10;;;4.75;;
77302;SDS011;66363;49.828;7.856;2023-03-01T00:17:53;7.85;;;4.28;;
77302;SDS011;66363;49.828;7.856;2023-03-01T00:20:19;9.77;;;4.00;;
77302;SDS011;66363;49.828;7.856;2023-03-01T00:22:44;9.43;;;4.50;;
77302;SDS011;66363;49.828;7.856;2023-03-01T00:25:10;9.55;;;5.00;;
77302;SDS011;66363;49.828;7.856;2023-03-01T00:27:36;8.73;;;4.18;;
77302;SDS011;66363;49.828;7.856;2023-03-01T00:30:03;7.68;;;4.20;;
77302;SDS011;66363;49.828;7.856;2023-03-01T00:32:30;10.18;;;4.20;;
77302;SDS011;66363;49.828;7.856;2023-03-01T00:34:55;10.55;;;4.18;;
77302;SDS011;66363;49.828;7.856;2023-03-01T00:37:21;9.40;;;4.32;;
77302;SDS011;66363;49.828;7.856;2023-03-01T00:39:47;9.35;;;4.28;;
77302;SDS011;66363;49.828;7.856;2023-03-01T00:42:13;10.23;;;4.68;;
77302;SDS011;66363;49.828;7.856;2023-03-01T00:44:38;9.35;;;4.35;;
77302;SDS011;66363;49.828;7.856;2023-03-01T00:47:05;7.25;;;3.80;;
77302;SDS011;66363;49.828;7.856;2023-03-01T00:49:31;9.32;;;4.18;;
77302;SDS011;66363;49.828;7.856;2023-03-01T00:51:57;11.10;;;4.20;;
77302;SDS011;66363;49.828;7.856;2023-03-01T00:54:22;8.23;;;4.63;;
77302;SDS011;66363;49.828;7.856;2023-03-01T00:56:48;9.35;;;3.78;;
77302;SDS011;66363;49.828;7.856;2023-03-01T00:59:14;9.43;;;4.30;;
77302;SDS011;66363;49.828;7.856;2023-03-01T01:01:39;7.75;;;4.30;;
77302;SDS011;66363;49.828;7.856;2023-03-01T01:04:07;7.88;;;4.40;;
77302;SDS011;66363;49.828;7.856;2023-03-01T01:06:35;6.65;;;4.15;;
77302;SDS011;66363;49.828;7.856;2023-03-01T01:09:03;6.13;;;3.47;;
77302;SDS011;66363;49.828;7.856;2023-03-01T01:11:30;7.53;;;3.67;;
77302;SDS011;66363;49.828;7.856;2023-03-01T01:13:56;7.32;;;3.95;;
77302;SDS011;66363;49.828;7.856;2023-03-01T01:16:23;7.85;;;3.97;;
77302;SDS011;66363;49.828;7.856;2023-03-01T01:18:51;12.27;;;5.10;;
77302;SDS011;66363;49.828;7.856;2023-03-01T01:21:20;12.38;;;5.13;;
77302;SDS011;66363;49.828;7.856;2023-03-01T01:23:47;8.57;;;4.50;;
77302;SDS011;66363;49.828;7.856;2023-03-01T01:26:14;11.57;;;4.38;;
77302;SDS011;66363;49.828;7.856;2023-03-01T01:28:42;11.32;;;4.28;;
77302;SDS011;66363;49.828;7.856;2023-03-01T01:31:07;8.43;;;4.50;;
77302;SDS011;66363;49.828;7.856;2023-03-01T01:33:33;9.70;;;4.30;;
77302;SDS011;66363;49.828;7.856;2023-03-01T01:35:59;7.93;;;4.20;;
77302;SDS011;66363;49.828;7.856;2023-03-01T01:38:26;7.00;;;3.58;;
77302;SDS011;66363;49.828;7.856;2023-03-01T01:40:52;10.20;;;4.72;;
77302;SDS011;66363;49.828;7.856;2023-03-01T01:43:19;10.30;;;4.22;;
77302;SDS011;66363;49.828;7.856;2023-03-01T01:45:46;11.13;;;4.60;;
77302;SDS011;66363;49.828;7.856;2023-03-01T01:48:12;8.45;;;4.65;;
77302;SDS011;66363;49.828;7.856;2023-03-01T01:50:43;10.15;;;4.60;;
77302;SDS011;66363;49.828;7.856;2023-03-01T01:53:10;8.98;;;4.72;;
77302;SDS011;66363;49.828;7.856;2023-03-01T01:55:39;6.28;;;3.90;;
77302;SDS011;66363;49.828;7.856;2023-03-01T01:58:11;11.27;;;4.70;;
77302;SDS011;66363;49.828;7.856;2023-03-01T02:00:41;9.50;;;4.68;;
77302;SDS011;66363;49.828;7.856;2023-03-01T02:03:08;9.60;;;4.70;;
77302;SDS011;66363;49.828;7.856;2023-03-01T02:05:37;8.27;;;3.95;;
77302;SDS011;66363;49.828;7.856;2023-03-01T02:08:08;8.70;;;4.35;;
77302;SDS011;66363;49.828;7.856;2023-03-01T02:10:39;7.55;;;4.03;;
77302;SDS011;66363;49.828;7.856;2023-03-01T02:13:06;8.52;;;4.05;;
77302;SDS011;66363;49.828;7.856;2023-03-01T02:15:32;11.88;;;4.82;;
77302;SDS011;66363;49.828;7.856;2023-03-01T02:17:59;8.77;;;4.40;;
77302;SDS011;66363;49.828;7.856;2023-03-01T02:20:28;10.52;;;5.05;;
77302;SDS011;66363;49.828;7.856;2023-03-01T02:22:58;10.55;;;4.72;;
77302;SDS011;66363;49.828;7.856;2023-03-01T02:25:38;8.95;;;4.75;;
77302;SDS011;66363;49.828;7.856;2023-03-01T02:30:46;10.93;;;4.97;;
77302;SDS011;66363;49.828;7.856;2023-03-01T02:33:14;9.23;;;4.32;;
77302;SDS011;66363;49.828;7.856;2023-03-01T02:35:40;9.63;;;4.28;;
77302;SDS011;66363;49.828;7.856;2023-03-01T02:38:06;13.50;;;4.47;;
77302;SDS011;66363;49.828;7.856;2023-03-01T02:40:34;11.35;;;4.45;;
77302;SDS011;66363;49.828;7.856;2023-03-01T02:43:03;7.55;;;4.43;;
77302;SDS011;66363;49.828;7.856;2023-03-01T02:45:34;10.73;;;4.45;;
77302;SDS011;66363;49.828;7.856;2023-03-01T02:48:00;12.90;;;5.07;;
77302;SDS011;66363;49.828;7.856;2023-03-01T02:50:34;8.90;;;4.70;;
77302;SDS011;66363;49.828;7.856;2023-03-01T02:53:19;10.80;;;4.10;;
77302;SDS011;66363;49.828;7.856;2023-03-01T02:55:52;9.20;;;4.45;;
77302;SDS011;66363;49.828;7.856;2023-03-01T02:58:18;7.60;;;4.32;;
77302;SDS011;66363;49.828;7.856;2023-03-01T03:00:46;10.90;;;4.68;;
77302;SDS011;66363;49.828;7.856;2023-03-01T03:03:12;7.65;;;4.57;;
77302;SDS011;66363;49.828;7.856;2023-03-01T03:05:39;10.73;;;4.80;;
77302;SDS011;66363;49.828;7.856;2023-03-01T03:08:04;14.23;;;5.88;;
77302;SDS011;66363;49.828;7.856;2023-03-01T03:10:30;10.65;;;5.15;;
77302;SDS011;66363;49.828;7.856;2023-03-01T03:12:59;12.55;;;4.90;;
77302;SDS011;66363;49.828;7.856;2023-03-01T03:15:26;9.52;;;5.13;;
77302;SDS011;66363;49.828;7.856;2023-03-01T03:17:54;9.15;;;4.82;;
77302;SDS011;66363;49.828;7.856;2023-03-01T03:20:22;8.57;;;4.53;;
77302;SDS011;66363;49.828;7.856;2023-03-01T03:22:51;8.50;;;4.35;;
77302;SDS011;66363;49.828;7.856;2023-03-01T03:25:19;11.40;;;4.63;;
77302;SDS011;66363;49.828;7.856;2023-03-01T03:27:46;9.98;;;4.80;;
77302;SDS011;66363;49.828;7.856;2023-03-01T03:30:14;9.75;;;4.32;;
77302;SDS011;66363;49.828;7.856;2023-03-01T03:32:42;11.80;;;4.78;;
77302;SDS011;66363;49.828;7.856;2023-03-01T03:35:12;9.80;;;5.00;;
77302;SDS011;66363;49.828;7.856;2023-03-01T03:37:38;9.77;;;5.43;;
77302;SDS011;66363;49.828;7.856;2023-03-01T03:40:05;7.95;;;5.03;;
77302;SDS011;66363;49.828;7.856;2023-03-01T03:42:31;9.27;;;5.20;;
77302;SDS011;66363;49.828;7.856;2023-03-01T03:44:57;12.35;;;5.63;;
77302;SDS011;66363;49.828;7.856;2023-03-01T03:47:22;9.30;;;4.55;;
77302;SDS011;66363;49.828;7.856;2023-03-01T03:49:48;12.38;;;5.32;;
77302;SDS011;66363;49.828;7.856;2023-03-01T03:52:15;8.68;;;4.60;;
77302;SDS011;66363;49.828;7.856;2023-03-01T03:54:41;8.18;;;4.95;;
77302;SDS011;66363;49.828;7.856;2023-03-01T03:57:06;11.32;;;5.38;;
77302;SDS011;66363;49.828;7.856;2023-03-01T03:59:32;8.77;;;5.28;;
77302;SDS011;66363;49.828;7.856;2023-03-01T04:01:58;10.00;;;4.47;;
77302;SDS011;66363;49.828;7.856;2023-03-01T04:04:23;8.70;;;4.72;;
77302;SDS011;66363;49.828;7.856;2023-03-01T04:06:49;8.05;;;5.05;;
77302;SDS011;66363;49.828;7.856;2023-03-01T04:09:16;10.43;;;4.93;;
77302;SDS011;66363;49.828;7.856;2023-03-01T04:11:42;9.63;;;4.85;;
77302;SDS011;66363;49.828;7.856;2023-03-01T04:14:08;9.35;;;4.75;;
77302;SDS011;66363;49.828;7.856;2023-03-01T04:19:00;9.23;;;4.70;;
77302;SDS011;66363;49.828;7.856;2023-03-01T04:21:25;10.20;;;3.97;;
77302;SDS011;66363;49.828;7.856;2023-03-01T04:23:51;8.00;;;4.50;;
77302;SDS011;66363;49.828;7.856;2023-03-01T04:26:19;8.27;;;4.53;;
77302;SDS011;66363;49.828;7.856;2023-03-01T04:28:45;8.63;;;4.60;;
77302;SDS011;66363;49.828;7.856;2023-03-01T04:31:11;6.93;;;4.18;;
77302;SDS011;66363;49.828;7.856;2023-03-01T04:33:38;8.20;;;4.15;;
77302;SDS011;66363;49.828;7.856;2023-03-01T04:36:05;10.68;;;3.95;;
77302;SDS011;66363;49.828;7.856;2023-03-01T04:38:31;7.40;;;3.72;;
77302;SDS011;66363;49.828;7.856;2023-03-01T04:40:57;9.93;;;4.80;;
77302;SDS011;66363;49.828;7.856;2023-03-01T04:43:24;10.55;;;4.60;;
77302;SDS011;66363;49.828;7.856;2023-03-01T04:45:49;9.52;;;4.70;;
77302;SDS011;66363;49.828;7.856;2023-03-01T04:48:15;7.45;;;4.55;;
77302;SDS011;66363;49.828;7.856;2023-03-01T04:50:40;11.63;;;4.93;;
77302;SDS011;66363;49.828;7.856;2023-03-01T04:53:06;8.43;;;4.38;;
77302;SDS011;66363;49.828;7.856;2023-03-01T04:55:32;8.90;;;5.10;;
77302;SDS011;66363;49.828;7.856;2023-03-01T04:57:59;12.38;;;5.00;;
77302;SDS011;66363;49.828;7.856;2023-03-01T05:00:26;9.43;;;4.63;;
77302;SDS011;66363;49.828;7.856;2023-03-01T05:02:52;10.10;;;4.70;;
77302;SDS011;66363;49.828;7.856;2023-03-01T05:05:23;10.48;;;4.80;;
77302;SDS011;66363;49.828;7.856;2023-03-01T05:07:52;9.32;;;4.35;;
77302;SDS011;66363;49.828;7.856;2023-03-01T05:10:19;10.38;;;4.65;;
77302;SDS011;66363;49.828;7.856;2023-03-01T05:12:45;11.35;;;4.97;;
77302;SDS011;66363;49.828;7.856;2023-03-01T05:15:11;7.45;;;4.53;;
77302;SDS011;66363;49.828;7.856;2023-03-01T05:17:38;10.15;;;4.47;;
77302;SDS011;66363;49.828;7.856;2023-03-01T05:20:04;8.02;;;4.32;;
77302;SDS011;66363;49.828;7.856;2023-03-01T05:22:30;11.13;;;5.25;;
77302;SDS011;66363;49.828;7.856;2023-03-01T05:24:56;11.90;;;4.88;;
77302;SDS011;66363;49.828;7.856;2023-03-01T05:27:21;10.95;;;4.63;;
77302;SDS011;66363;49.828;7.856;2023-03-01T05:29:47;9.07;;;5.03;;
77302;SDS011;66363;49.828;7.856;2023-03-01T05:32:13;10.57;;;4.88;;
77302;SDS011;66363;49.828;7.856;2023-03-01T05:34:40;9.35;;;4.38;;
77302;SDS011;66363;49.828;7.856;2023-03-01T05:37:07;9.85;;;4.65;;
77302;SDS011;66363;49.828;7.856;2023-03-01T05:39:35;9.52;;;4.82;;
77302;SDS011;66363;49.828;7.856;2023-03-01T05:42:01;10.27;;;5.00;;
77302;SDS011;66363;49.828;7.856;2023-03-01T05:44:27;12.27;;;5.53;;
77302;SDS011;66363;49.828;7.856;2023-03-01T05:46:53;12.05;;;5.35;;
77302;SDS011;66363;49.828;7.856;2023-03-01T05:49:20;9.32;;;4.68;;
77302;SDS011;66363;49.828;7.856;2023-03-01T05:51:48;10.35;;;5.50;;
77302;SDS011;66363;49.828;7.856;2023-03-01T05:54:15;11.55;;;5.15;;
77302;SDS011;66363;49.828;7.856;2023-03-01T05:56:41;11.57;;;4.75;;
77302;SDS011;66363;49.828;7.856;2023-03-01T05:59:07;10.02;;;5.10;;
77302;SDS011;66363;49.828;7.856;2023-03-01T06:01:33;11.25;;;5.65;;
77302;SDS011;66363;49.828;7.856;2023-03-01T06:03:59;10.45;;;4.95;;
77302;SDS011;66363;49.828;7.856;2023-03-01T06:06:25;11.35;;;5.20;;
77302;SDS011;66363;49.828;7.856;2023-03-01T06:08:52;11.90;;;4.95;;
77302;SDS011;66363;49.828;7.856;2023-03-01T06:11:19;11.10;;;5.20;;
77302;SDS011;66363;49.828;7.856;2023-03-01T06:13:45;12.60;;;5.35;;
77302;SDS011;66363;49.828;7.856;2023-03-01T06:16:11;10.55;;;5.22;;
77302;SDS011;66363;49.828;7.856;2023-03-01T06:18:37;11.65;;;4.88;;
77302;SDS011;66363;49.828;7.856;2023-03-01T06:21:04;8.32;;;4.45;;
77302;SDS011;66363;49.828;7.856;2023-03-01T06:23:30;10.35;;;4.82;;
77302;SDS011;66363;49.828;7.856;2023-03-01T06:25:58;9.90;;;4.80;;
77302;SDS011;66363;49.828;7.856;2023-03-01T06:28:24;11.27;;;5.18;;
77302;SDS011;66363;49.828;7.856;2023-03-01T06:30:49;11.82;;;5.80;;
77302;SDS011;66363;49.828;7.856;2023-03-01T06:33:15;11.95;;;5.85;;
77302;SDS011;66363;49.828;7.856;2023-03-01T06:35:41;12.30;;;5.15;;
77302;SDS011;66363;49.828;7.856;2023-03-01T06:38:07;12.18;;;5.85;;
77302;SDS011;66363;49.828;7.856;2023-03-01T06:40:32;11.57;;;5.13;;
77302;SDS011;66363;49.828;7.856;2023-03-01T06:43:00;11.02;;;5.50;;
77302;SDS011;66363;49.828;7.856;2023-03-01T06:45:26;16.42;;;5.78;;
77302;SDS011;66363;49.828;7.856;2023-03-01T06:47:51;11.32;;;6.15;;
77302;SDS011;66363;49.828;7.856;2023-03-01T06:50:17;12.68;;;6.10;;
77302;SDS011;66363;49.828;7.856;2023-03-01T06:52:43;10.80;;;5.15;;
77302;SDS011;66363;49.828;7.856;2023-03-01T06:55:09;11.75;;;5.57;;
77302;SDS011;66363;49.828;7.856;2023-03-01T06:57:35;13.95;;;6.28;;
77302;SDS011;66363;49.828;7.856;2023-03-01T07:00:02;9.65;;;5.20;;
77302;SDS011;66363;49.828;7.856;2023-03-01T07:02:28;11.23;;;4.88;;
77302;SDS011;66363;49.828;7.856;2023-03-01T07:04:53;10.27;;;5.15;;
77302;SDS011;66363;49.828;7.856;2023-03-01T07:07:19;11.38;;;5.45;;
77302;SDS011;66363;49.828;7.856;2023-03-01T07:09:45;10.80;;;5.38;;
77302;SDS011;66363;49.828;7.856;2023-03-01T07:12:10;11.80;;;6.07;;
77302;SDS011;66363;49.828;7.856;2023-03-01T07:14:36;10.75;;;5.72;;
77302;SDS011;66363;49.828;7.856;2023-03-01T07:17:03;14.10;;;5.68;;
77302;SDS011;66363;49.828;7.856;2023-03-01T07:19:29;10.85;;;5.65;;
77302;SDS011;66363;49.828;7.856;2023-03-01T07:21:55;10.35;;;6.18;;
77302;SDS011;66363;49.828;7.856;2023-03-01T07:24:20;14.15;;;6.90;;
77302;SDS011;66363;49.828;7.856;2023-03-01T07:26:48;10.48;;;5.45;;
77302;SDS011;66363;49.828;7.856;2023-03-01T07:29:13;12.98;;;6.13;;
77302;SDS011;66363;49.828;7.856;2023-03-01T07:31:39;13.52;;;6.80;;
77302;SDS011;66363;49.828;7.856;2023-03-01T07:34:06;14.77;;;6.53;;
77302;SDS011;66363;49.828;7.856;2023-03-01T07:36:32;14.82;;;6.35;;
77302;SDS011;66363;49.828;7.856;2023-03-01T07:38:57;14.60;;;7.53;;
77302;SDS011;66363;49.828;7.856;2023-03-01T07:41:23;11.75;;;6.35;;
77302;SDS011;66363;49.828;7.856;2023-03-01T07:43:49;14.35;;;7.03;;
77302;SDS011;66363;49.828;7.856;2023-03-01T07:46:14;13.32;;;5.68;;
77302;SDS011;66363;49.828;7.856;2023-03-01T07:48:40;14.32;;;6.45;;
77302;SDS011;66363;49.828;7.856;2023-03-01T07:51:07;12.55;;;7.07;;
77302;SDS011;66363;49.828;7.856;2023-03-01T07:53:33;14.48;;;7.28;;
77302;SDS011;66363;49.828;7.856;2023-03-01T07:56:00;16.17;;;7.45;;
77302;SDS011;66363;49.828;7.856;2023-03-01T07:58:26;14.98;;;6.53;;
77302;SDS011;66363;49.828;7.856;2023-03-01T08:00:52;13.95;;;6.90;;
77302;SDS011;66363;49.828;7.856;2023-03-01T08:03:17;17.92;;;7.40;;
77302;SDS011;66363;49.828;7.856;2023-03-01T08:05:43;10.68;;;5.63;;
77302;SDS011;66363;49.828;7.856;2023-03-01T08:08:10;12.43;;;6.95;;
77302;SDS011;66363;49.828;7.856;2023-03-01T08:10:35;10.10;;;5.78;;
77302;SDS011;66363;49.828;7.856;2023-03-01T08:13:01;10.27;;;6.13;;
77302;SDS011;66363;49.828;7.856;2023-03-01T08:15:27;10.43;;;6.18;;
77302;SDS011;66363;49.828;7.856;2023-03-01T08:17:52;12.00;;;6.05;;
77302;SDS011;66363;49.828;7.856;2023-03-01T08:20:18;11.50;;;6.40;;
77302;SDS011;66363;49.828;7.856;2023-03-01T08:22:43;9.55;;;5.63;;
77302;SDS011;66363;49.828;7.856;2023-03-01T08:25:10;13.25;;;6.80;;
77302;SDS011;66363;49.828;7.856;2023-03-01T08:27:36;9.68;;;5.60;;
77302;SDS011;66363;49.828;7.856;2023-03-01T08:30:02;9.85;;;5.97;;
77302;SDS011;66363;49.828;7.856;2023-03-01T08:32:28;10.68;;;5.13;;
77302;SDS011;66363;49.828;7.856;2023-03-01T08:34:53;10.90;;;6.05;;
77302;SDS011;66363;49.828;7.856;2023-03-01T08:37:19;11.27;;;5.25;;
77302;SDS011;66363;49.828;7.856;2023-03-01T08:39:45;8.82;;;5.80;;
77302;SDS011;66363;49.828;7.856;2023-03-01T08:44:38;7.97;;;5.05;;
77302;SDS011;66363;49.828;7.856;2023-03-01T08:47:03;10.13;;;5.43;;
77302;SDS011;66363;49.828;7.856;2023-03-01T08:49:29;9.05;;;5.22;;
77302;SDS011;66363;49.828;7.856;2023-03-01T08:51:55;9.88;;;6.20;;
77302;SDS011;66363;49.828;7.856;2023-03-01T08:54:21;9.32;;;6.07;;
77302;SDS011;66363;49.828;7.856;2023-03-01T08:56:47;11.30;;;5.20;;
77302;SDS011;66363;49.828;7.856;2023-03-01T08:59:15;10.38;;;5.53;;
77302;SDS011;66363;49.828;7.856;2023-03-01T09:01:41;8.50;;;5.78;;
77302;SDS011;66363;49.828;7.856;2023-03-01T09:04:07;11.48;;;5.68;;
77302;SDS011;66363;49.828;7.856;2023-03-01T09:06:33;9.82;;;5.85;;
77302;SDS011;66363;49.828;7.856;2023-03-01T09:11:24;11.63;;;6.05;;
77302;SDS011;66363;49.828;7.856;2023-03-01T09:13:50;11.45;;;6.75;;
77302;SDS011;66363;49.828;7.856;2023-03-01T09:18:49;9.98;;;5.35;;
77302;SDS011;66363;49.828;7.856;2023-03-01T09:21:17;15.57;;;6.03;;
77302;SDS011;66363;49.828;7.856;2023-03-01T09:23:44;10.32;;;6.22;;
77302;SDS011;66363;49.828;7.856;2023-03-01T09:26:11;11.50;;;6.45;;
77302;SDS011;66363;49.828;7.856;2023-03-01T09:28:39;13.18;;;6.75;;
77302;SDS011;66363;49.828;7.856;2023-03-01T09:31:05;11.75;;;6.40;;
77302;SDS011;66363;49.828;7.856;2023-03-01T09:33:35;14.27;;;6.60;;
77302;SDS011;66363;49.828;7.856;2023-03-01T09:36:01;10.15;;;6.22;;
77302;SDS011;66363;49.828;7.856;2023-03-01T09:38:29;11.85;;;6.75;;
77302;SDS011;66363;49.828;7.856;2023-03-01T09:40:55;10.98;;;6.15;;
77302;SDS011;66363;49.828;7.856;2023-03-01T09:43:22;10.38;;;6.28;;
77302;SDS011;66363;49.828;7.856;2023-03-01T09:45:53;10.70;;;6.75;;
77302;SDS011;66363;49.828;7.856;2023-03-01T09:48:21;10.88;;;6.97;;
77302;SDS011;66363;49.828;7.856;2023-03-01T09:50:51;10.80;;;6.32;;
77302;SDS011;66363;49.828;7.856;2023-03-01T09:53:18;11.80;;;7.07;;
77302;SDS011;66363;49.828;7.856;2023-03-01T09:55:45;14.23;;;6.43;;
77302;SDS011;66363;49.828;7.856;2023-03-01T09:58:29;10.20;;;6.25;;
77302;SDS011;66363;49.828;7.856;2023-03-01T10:01:02;10.82;;;7.38;;
77302;SDS011;66363;49.828;7.856;2023-03-01T10:03:42;14.45;;;7.93;;
77302;SDS011;66363;49.828;7.856;2023-03-01T10:06:12;14.68;;;7.53;;
77302;SDS011;66363;49.828;7.856;2023-03-01T10:08:46;13.20;;;7.18;;
77302;SDS011;66363;49.828;7.856;2023-03-01T10:11:21;12.90;;;7.32;;
77302;SDS011;66363;49.828;7.856;2023-03-01T10:13:50;11.68;;;7.75;;
77302;SDS011;66363;49.828;7.856;2023-03-01T10:16:25;14.50;;;8.27;;
77302;SDS011;66363;49.828;7.856;2023-03-01T10:18:55;10.45;;;7.20;;
77302;SDS011;66363;49.828;7.856;2023-03-01T10:21:27;13.90;;;8.07;;
77302;SDS011;66363;49.828;7.856;2023-03-01T10:23:53;12.55;;;7.28;;
77302;SDS011;66363;49.828;7.856;2023-03-01T10:26:35;13.43;;;8.32;;
77302;SDS011;66363;49.828;7.856;2023-03-01T10:29:09;11.57;;;7.22;;
77302;SDS011;66363;49.828;7.856;2023-03-01T10:31:38;12.75;;;7.50;;
77302;SDS011;66363;49.828;7.856;2023-03-01T10:34:08;16.55;;;9.38;;
77302;SDS011;66363;49.828;7.856;2023-03-01T10:36:37;12.05;;;7.10;;
77302;SDS011;66363;49.828;7.856;2023-03-01T10:39:04;15.13;;;8.40;;
77302;SDS011;66363;49.828;7.856;2023-03-01T10:41:40;15.13;;;8.13;;
77302;SDS011;66363;49.828;7.856;2023-03-01T10:44:34;12.75;;;7.45;;
77302;SDS011;66363;49.828;7.856;2023-03-01T10:47:01;12.27;;;7.78;;
77302;SDS011;66363;49.828;7.856;2023-03-01T10:49:27;11.68;;;7.43;;
77302;SDS011;66363;49.828;7.856;2023-03-01T10:51:54;13.45;;;7.50;;
77302;SDS011;66363;49.828;7.856;2023-03-01T10:54:20;14.77;;;8.43;;
77302;SDS011;66363;49.828;7.856;2023-03-01T10:56:51;13.63;;;8.05;;
77302;SDS011;66363;49.828;7.856;2023-03-01T10:59:27;12.48;;;8.05;;
77302;SDS011;66363;49.828;7.856;2023-03-01T11:02:03;14.48;;;7.70;;
77302;SDS011;66363;49.828;7.856;2023-03-01T11:04:52;16.27;;;8.55;;
77302;SDS011;66363;49.828;7.856;2023-03-01T11:07:24;11.95;;;7.40;;
77302;SDS011;66363;49.828;7.856;2023-03-01T11:09:49;12.70;;;7.63;;
77302;SDS011;66363;49.828;7.856;2023-03-01T11:12:15;12.85;;;8.07;;
77302;SDS011;66363;49.828;7.856;2023-03-01T11:14:46;13.05;;;8.60;;
77302;SDS011;66363;49.828;7.856;2023-03-01T11:17:13;13.65;;;9.02;;
77302;SDS011;66363;49.828;7.856;2023-03-01T11:19:42;16.08;;;8.38;;
77302;SDS011;66363;49.828;7.856;2023-03-01T11:22:10;14.00;;;8.82;;
77302;SDS011;66363;49.828;7.856;2023-03-01T11:24:40;14.63;;;8.85;;
77302;SDS011;66363;49.828;7.856;2023-03-01T11:27:13;12.85;;;8.65;;
77302;SDS011;66363;49.828;7.856;2023-03-01T11:29:44;12.55;;;9.00;;
77302;SDS011;66363;49.828;7.856;2023-03-01T11:32:12;14.15;;;7.82;;
77302;SDS011;66363;49.828;7.856;2023-03-01T11:34:42;14.60;;;8.20;;
77302;SDS011;66363;49.828;7.856;2023-03-01T11:37:19;13.75;;;8.10;;
77302;SDS011;66363;49.828;7.856;2023-03-01T11:39:55;10.85;;;7.30;;
77302;SDS011;66363;49.828;7.856;2023-03-01T11:42:29;12.25;;;8.15;;
77302;SDS011;66363;49.828;7.856;2023-03-01T11:45:08;12.88;;;8.55;;
77302;SDS011;66363;49.828;7.856;2023-03-01T11:47:49;12.85;;;8.18;;
77302;SDS011;66363;49.828;7.856;2023-03-01T11:50:29;12.52;;;7.38;;
77302;SDS011;66363;49.828;7.856;2023-03-01T11:53:03;13.55;;;8.18;;
77302;SDS011;66363;49.828;7.856;2023-03-01T11:55:49;11.88;;;7.82;;
77302;SDS011;66363;49.828;7.856;2023-03-01T11:58:31;13.30;;;8.27;;
77302;SDS011;66363;49.828;7.856;2023-03-01T12:01:11;15.30;;;8.27;;
77302;SDS011;66363;49.828;7.856;2023-03-01T12:06:50;13.52;;;8.25;;
77302;SDS011;66363;49.828;7.856;2023-03-01T12:09:23;14.07;;;8.45;;
77302;SDS011;66363;49.828;7.856;2023-03-01T12:12:08;12.95;;;8.50;;
77302;SDS011;66363;49.828;7.856;2023-03-01T12:14:55;13.68;;;8.27;;
77302;SDS011;66363;49.828;7.856;2023-03-01T12:17:45;13.85;;;8.18;;
77302;SDS011;66363;49.828;7.856;2023-03-01T12:20:20;12.77;;;8.48;;
77302;SDS011;66363;49.828;7.856;2023-03-01T12:22:56;12.18;;;7.88;;
77302;SDS011;66363;49.828;7.856;2023-03-01T12:25:33;13.00;;;8.70;;
77302;SDS011;66363;49.828;7.856;2023-03-01T12:34:03;16.52;;;8.98;;
77302;SDS011;66363;49.828;7.856;2023-03-01T12:36:46;12.40;;;8.15;;
77302;SDS011;66363;49.828;7.856;2023-03-01T12:39:29;15.02;;;8.25;;
77302;SDS011;66363;49.828;7.856;2023-03-01T12:42:07;12.70;;;8.43;;
77302;SDS011;66363;49.828;7.856;2023-03-01T12:44:47;13.30;;;8.98;;
77302;SDS011;66363;49.828;7.856;2023-03-01T12:47:26;11.73;;;8.65;;
77302;SDS011;66363;49.828;7.856;2023-03-01T12:50:04;13.60;;;8.35;;
77302;SDS011;66363;49.828;7.856;2023-03-01T12:52:41;11.13;;;7.85;;
77302;SDS011;66363;49.828;7.856;2023-03-01T12:55:18;9.80;;;7.70;;
77302;SDS011;66363;49.828;7.856;2023-03-01T12:57:51;14.02;;;8.45;;
77302;SDS011;66363;49.828;7.856;2023-03-01T13:00:26;13.90;;;8.73;;
77302;SDS011;66363;49.828;7.856;2023-03-01T13:02:57;13.68;;;8.75;;
77302;SDS011;66363;49.828;7.856;2023-03-01T13:05:34;11.75;;;7.30;;
77302;SDS011;66363;49.828;7.856;2023-03-01T13:08:08;9.85;;;7.22;;
77302;SDS011;66363;49.828;7.856;2023-03-01T13:10:43;12.38;;;7.97;;
77302;SDS011;66363;49.828;7.856;2023-03-01T13:15:44;11.02;;;6.88;;
77302;SDS011;66363;49.828;7.856;2023-03-01T13:18:30;11.45;;;6.95;;
77302;SDS011;66363;49.828;7.856;2023-03-01T13:20:57;11.30;;;7.43;;
77302;SDS011;66363;49.828;7.856;2023-03-01T13:23:26;12.18;;;6.70;;
77302;SDS011;66363;49.828;7.856;2023-03-01T13:26:02;12.50;;;6.88;;
77302;SDS011;66363;49.828;7.856;2023-03-01T13:28:36;10.63;;;7.13;;
77302;SDS011;66363;49.828;7.856;2023-03-01T13:37:18;8.55;;;6.25;;
77302;SDS011;66363;49.828;7.856;2023-03-01T13:39:55;10.88;;;6.60;;
77302;SDS011;66363;49.828;7.856;2023-03-01T13:42:33;8.65;;;6.05;;
77302;SDS011;66363;49.828;7.856;2023-03-01T13:45:01;10.52;;;6.75;;
77302;SDS011;66363;49.828;7.856;2023-03-01T13:47:28;9.07;;;6.03;;
77302;SDS011;66363;49.828;7.856;2023-03-01T13:52:36;9.05;;;5.22;;
77302;SDS011;66363;49.828;7.856;2023-03-01T13:55:04;7.95;;;6.75;;
77302;SDS011;66363;49.828;7.856;2023-03-01T13:57:39;8.38;;;6.13;;
77302;SDS011;66363;49.828;7.856;2023-03-01T14:00:07;8.75;;;5.45;;
77302;SDS011;66363;49.828;7.856;2023-03-01T14:02:59;9.77;;;5.50;;
77302;SDS011;66363;49.828;7.856;2023-03-01T14:05:27;7.97;;;5.25;;
77302;SDS011;66363;49.828;7.856;2023-03-01T14:07:52;8.45;;;5.57;;
77302;SDS011;66363;49.828;7.856;2023-03-01T14:12:44;8.40;;;5.07;;
77302;SDS011;66363;49.828;7.856;2023-03-01T14:15:15;10.18;;;6.28;;
77302;SDS011;66363;49.828;7.856;2023-03-01T14:17:52;9.05;;;5.40;;
77302;SDS011;66363;49.828;7.856;2023-03-01T14:20:25;7.03;;;5.45;;
77302;SDS011;66363;49.828;7.856;2023-03-01T14:22:56;8.68;;;4.97;;
77302;SDS011;66363;49.828;7.856;2023-03-01T14:25:24;7.47;;;5.13;;
77302;SDS011;66363;49.828;7.856;2023-03-01T14:27:54;7.63;;;5.60;;
77302;SDS011;66363;49.828;7.856;2023-03-01T14:30:22;8.27;;;6.07;;
77302;SDS011;66363;49.828;7.856;2023-03-01T14:32:53;7.35;;;5.82;;
77302;SDS011;66363;49.828;7.856;2023-03-01T14:35:20;10.43;;;5.82;;
77302;SDS011;66363;49.828;7.856;2023-03-01T14:37:49;7.85;;;5.55;;
77302;SDS011;66363;49.828;7.856;2023-03-01T14:40:20;8.45;;;5.35;;
77302;SDS011;66363;49.828;7.856;2023-03-01T14:42:47;8.98;;;5.18;;
77302;SDS011;66363;49.828;7.856;2023-03-01T14:47:38;8.30;;;5.80;;
77302;SDS011;66363;49.828;7.856;2023-03-01T14:52:33;8.68;;;5.38;;
77302;SDS011;66363;49.828;7.856;2023-03-01T14:55:02;8.05;;;5.50;;
77302;SDS011;66363;49.828;7.856;2023-03-01T14:57:30;8.15;;;4.93;;
77302;SDS011;66363;49.828;7.856;2023-03-01T15:02:24;8.77;;;4.97;;
77302;SDS011;66363;49.828;7.856;2023-03-01T15:04:52;7.53;;;5.43;;
77302;SDS011;66363;49.828;7.856;2023-03-01T15:07:19;8.20;;;5.60;;
77302;SDS011;66363;49.828;7.856;2023-03-01T15:09:45;9.20;;;5.78;;
77302;SDS011;66363;49.828;7.856;2023-03-01T15:14:56;8.07;;;4.93;;
77302;SDS011;66363;49.828;7.856;2023-03-01T15:17:24;8.20;;;5.28;;
77302;SDS011;66363;49.828;7.856;2023-03-01T15:19:55;7.93;;;5.63;;
77302;SDS011;66363;49.828;7.856;2023-03-01T15:22:21;6.78;;;4.68;;
77302;SDS011;66363;49.828;7.856;2023-03-01T15:24:49;7.47;;;5.13;;
77302;SDS011;66363;49.828;7.856;2023-03-01T15:29:41;8.25;;;5.10;;
77302;SDS011;66363;49.828;7.856;2023-03-01T15:32:24;7.72;;;5.00;;
77302;SDS011;66363;49.828;7.856;2023-03-01T15:34:52;9.18;;;5.15;;
77302;SDS011;66363;49.828;7.856;2023-03-01T15:40:17;7.93;;;5.40;;